sensor_id;sensor_type;location;lat;lon;timestamp;P1;durP1;ratioP1;P2;durP2;ratioP2
11514;SDS011;5814;41.936;25.556;2023-04-25T00:00:36;14.50;;;13.30;;
11514;SDS011;5814;41.936;25.556;2023-04-25T00:03:03;13.67;;;12.57;;
11514;SDS011;5814;41.936;25.556;2023-04-25T00:05:30;13.60;;;12.60;;
11514;SDS011;5814;41.936;25.556;2023-04-25T00:07:57;13.67;;;12.67;;
11514;SDS011;5814;41.936;25.556;2023-04-25T00:10:25;13.47;;;12.57;;
11514;SDS011;5814;41.936;25.556;2023-04-25T00:12:52;13.37;;;12.37;;
11514;SDS011;5814;41.936;25.556;2023-04-25T00:15:19;13.90;;;12.30;;
11514;SDS011;5814;41.936;25.556;2023-04-25T00:17:46;13.83;;;12.80;;
11514;SDS011;5814;41.936;25.556;2023-04-25T00:20:13;11.87;;;10.97;;
11514;SDS011;5814;41.936;25.556;2023-04-25T00:22:40;13.70;;;12.70;;
11514;SDS011;5814;41.936;25.556;2023-04-25T00:25:08;12.57;;;11.77;;
11514;SDS011;5814;41.936;25.556;2023-04-25T00:27:35;12.73;;;11.80;;
11514;SDS011;5814;41.936;25.556;2023-04-25T00:30:02;12.70;;;11.70;;
11514;SDS011;5814;41.936;25.556;2023-04-25T00:32:30;13.03;;;12.07;;
11514;SDS011;5814;41.936;25.556;2023-04-25T00:34:57;12.70;;;11.90;;
11514;SDS011;5814;41.936;25.556;2023-04-25T00:37:24;12.40;;;11.70;;
11514;SDS011;5814;41.936;25.556;2023-04-25T00:39:52;13.53;;;12.27;;
11514;SDS011;5814;41.936;25.556;2023-04-25T00:42:19;13.07;;;12.03;;
11514;SDS011;5814;41.936;25.556;2023-04-25T00:44:46;13.37;;;12.40;;
11514;SDS011;5814;41.936;25.556;2023-04-25T00:47:13;14.00;;;13.10;;
11514;SDS011;5814;41.936;25.556;2023-04-25T00:49:40;13.77;;;12.77;;
11514;SDS011;5814;41.936;25.556;2023-04-25T00:52:07;13.87;;;12.93;;
11514;SDS011;5814;41.936;25.556;2023-04-25T00:54:35;13.90;;;13.10;;
11514;SDS011;5814;41.936;25.556;2023-04-25T00:57:02;14.03;;;13.20;;
11514;SDS011;5814;41.936;25.556;2023-04-25T00:59:29;15.10;;;13.80;;
11514;SDS011;5814;41.936;25.556;2023-04-25T01:01:56;14.37;;;13.37;;
11514;SDS011;5814;41.936;25.556;2023-04-25T01:04:23;13.87;;;12.57;;
11514;SDS011;5814;41.936;25.556;2023-04-25T01:06:50;13.40;;;12.33;;
11514;SDS011;5814;41.936;25.556;2023-04-25T01:09:18;12.93;;;12.13;;
11514;SDS011;5814;41.936;25.556;2023-04-25T01:11:45;13.30;;;12.30;;
11514;SDS011;5814;41.936;25.556;2023-04-25T01:14:12;13.93;;;12.93;;
11514;SDS011;5814;41.936;25.556;2023-04-25T01:16:39;13.90;;;13.00;;
11514;SDS011;5814;41.936;25.556;2023-04-25T01:19:08;13.50;;;12.53;;
11514;SDS011;5814;41.936;25.556;2023-04-25T01:21:34;13.43;;;12.33;;
11514;SDS011;5814;41.936;25.556;2023-04-25T01:24:01;13.80;;;12.70;;
11514;SDS011;5814;41.936;25.556;2023-04-25T01:26:29;13.60;;;12.60;;
11514;SDS011;5814;41.936;25.556;2023-04-25T01:28:56;14.33;;;13.13;;
11514;SDS011;5814;41.936;25.556;2023-04-25T01:31:23;14.70;;;13.53;;
11514;SDS011;5814;41.936;25.556;2023-04-25T01:33:51;14.50;;;13.37;;
11514;SDS011;5814;41.936;25.556;2023-04-25T01:36:18;14.30;;;12.93;;
11514;SDS011;5814;41.936;25.556;2023-04-25T01:38:45;13.83;;;12.73;;
11514;SDS011;5814;41.936;25.556;2023-04-25T01:41:13;14.23;;;13.23;;
11514;SDS011;5814;41.936;25.556;2023-04-25T01:43:39;15.07;;;13.87;;
11514;SDS011;5814;41.936;25.556;2023-04-25T01:46:06;15.83;;;14.30;;
11514;SDS011;5814;41.936;25.556;2023-04-25T01:48:34;15.40;;;14.30;;
11514;SDS011;5814;41.936;25.556;2023-04-25T01:51:01;15.00;;;13.90;;
11514;SDS011;5814;41.936;25.556;2023-04-25T01:53:28;14.70;;;13.60;;
11514;SDS011;5814;41.936;25.556;2023-04-25T01:55:55;14.67;;;13.33;;
11514;SDS011;5814;41.936;25.556;2023-04-25T01:58:22;13.63;;;12.70;;
11514;SDS011;5814;41.936;25.556;2023-04-25T02:00:50;13.80;;;12.70;;
11514;SDS011;5814;41.936;25.556;2023-04-25T02:03:17;13.57;;;12.67;;
11514;SDS011;5814;41.936;25.556;2023-04-25T02:05:44;13.33;;;12.40;;
11514;SDS011;5814;41.936;25.556;2023-04-25T02:08:11;13.20;;;12.30;;
11514;SDS011;5814;41.936;25.556;2023-04-25T02:10:38;13.43;;;12.30;;
11514;SDS011;5814;41.936;25.556;2023-04-25T02:13:05;14.83;;;13.63;;
11514;SDS011;5814;41.936;25.556;2023-04-25T02:15:32;13.67;;;12.60;;
11514;SDS011;5814;41.936;25.556;2023-04-25T02:18:00;15.20;;;13.67;;
11514;SDS011;5814;41.936;25.556;2023-04-25T02:20:27;13.87;;;12.77;;
11514;SDS011;5814;41.936;25.556;2023-04-25T02:22:54;13.73;;;12.53;;
11514;SDS011;5814;41.936;25.556;2023-04-25T02:25:22;13.63;;;12.53;;
11514;SDS011;5814;41.936;25.556;2023-04-25T02:27:48;13.70;;;12.80;;
11514;SDS011;5814;41.936;25.556;2023-04-25T02:30:16;13.40;;;12.30;;
11514;SDS011;5814;41.936;25.556;2023-04-25T02:32:43;12.57;;;11.47;;
11514;SDS011;5814;41.936;25.556;2023-04-25T02:35:10;12.93;;;11.93;;
11514;SDS011;5814;41.936;25.556;2023-04-25T02:37:38;11.93;;;11.23;;
11514;SDS011;5814;41.936;25.556;2023-04-25T02:40:05;10.13;;;9.43;;
11514;SDS011;5814;41.936;25.556;2023-04-25T02:42:33;9.47;;;8.80;;
11514;SDS011;5814;41.936;25.556;2023-04-25T02:45:00;9.30;;;8.70;;
11514;SDS011;5814;41.936;25.556;2023-04-25T02:47:27;9.67;;;8.73;;
11514;SDS011;5814;41.936;25.556;2023-04-25T02:49:54;8.67;;;7.83;;
11514;SDS011;5814;41.936;25.556;2023-04-25T02:52:22;8.53;;;8.03;;
11514;SDS011;5814;41.936;25.556;2023-04-25T02:54:49;12.97;;;11.53;;
11514;SDS011;5814;41.936;25.556;2023-04-25T02:57:16;8.43;;;7.83;;
11514;SDS011;5814;41.936;25.556;2023-04-25T02:59:43;8.87;;;8.10;;
11514;SDS011;5814;41.936;25.556;2023-04-25T03:02:10;8.93;;;8.23;;
11514;SDS011;5814;41.936;25.556;2023-04-25T03:04:37;8.57;;;8.00;;
11514;SDS011;5814;41.936;25.556;2023-04-25T03:07:05;8.30;;;7.70;;
11514;SDS011;5814;41.936;25.556;2023-04-25T03:09:32;9.47;;;8.87;;
11514;SDS011;5814;41.936;25.556;2023-04-25T03:11:59;9.67;;;8.87;;
11514;SDS011;5814;41.936;25.556;2023-04-25T03:14:26;9.20;;;8.60;;
11514;SDS011;5814;41.936;25.556;2023-04-25T03:16:53;10.17;;;9.43;;
11514;SDS011;5814;41.936;25.556;2023-04-25T03:19:20;9.23;;;8.37;;
11514;SDS011;5814;41.936;25.556;2023-04-25T03:21:48;9.07;;;8.47;;
11514;SDS011;5814;41.936;25.556;2023-04-25T03:24:15;9.77;;;8.97;;
11514;SDS011;5814;41.936;25.556;2023-04-25T03:26:42;10.77;;;8.43;;
11514;SDS011;5814;41.936;25.556;2023-04-25T03:29:09;9.63;;;8.83;;
11514;SDS011;5814;41.936;25.556;2023-04-25T03:31:36;9.73;;;8.80;;
11514;SDS011;5814;41.936;25.556;2023-04-25T03:34:03;9.47;;;8.83;;
11514;SDS011;5814;41.936;25.556;2023-04-25T03:36:31;10.77;;;9.90;;
11514;SDS011;5814;41.936;25.556;2023-04-25T03:38:58;17.50;;;15.70;;
11514;SDS011;5814;41.936;25.556;2023-04-25T03:41:25;9.53;;;8.83;;
11514;SDS011;5814;41.936;25.556;2023-04-25T03:43:52;15.07;;;13.50;;
11514;SDS011;5814;41.936;25.556;2023-04-25T03:46:19;9.73;;;9.03;;
11514;SDS011;5814;41.936;25.556;2023-04-25T03:48:46;19.90;;;17.67;;
11514;SDS011;5814;41.936;25.556;2023-04-25T03:51:14;9.90;;;9.30;;
11514;SDS011;5814;41.936;25.556;2023-04-25T03:53:41;10.00;;;9.10;;
11514;SDS011;5814;41.936;25.556;2023-04-25T03:56:08;9.90;;;9.10;;
11514;SDS011;5814;41.936;25.556;2023-04-25T03:58:35;10.03;;;9.13;;
11514;SDS011;5814;41.936;25.556;2023-04-25T04:01:02;11.17;;;10.17;;
11514;SDS011;5814;41.936;25.556;2023-04-25T04:03:29;10.67;;;9.70;;
11514;SDS011;5814;41.936;25.556;2023-04-25T04:05:57;9.53;;;8.83;;
11514;SDS011;5814;41.936;25.556;2023-04-25T04:08:24;10.67;;;9.87;;
11514;SDS011;5814;41.936;25.556;2023-04-25T04:10:51;10.83;;;9.77;;
11514;SDS011;5814;41.936;25.556;2023-04-25T04:13:18;11.60;;;10.57;;
11514;SDS011;5814;41.936;25.556;2023-04-25T04:15:45;11.50;;;10.43;;
11514;SDS011;5814;41.936;25.556;2023-04-25T04:18:12;10.73;;;9.83;;
11514;SDS011;5814;41.936;25.556;2023-04-25T04:20:39;10.60;;;9.70;;
11514;SDS011;5814;41.936;25.556;2023-04-25T04:23:07;12.23;;;9.60;;
11514;SDS011;5814;41.936;25.556;2023-04-25T04:25:34;10.57;;;9.57;;
11514;SDS011;5814;41.936;25.556;2023-04-25T04:28:01;10.83;;;9.80;;
11514;SDS011;5814;41.936;25.556;2023-04-25T04:30:28;10.27;;;9.37;;
11514;SDS011;5814;41.936;25.556;2023-04-25T04:32:55;13.23;;;11.93;;
11514;SDS011;5814;41.936;25.556;2023-04-25T04:35:23;13.77;;;12.27;;
11514;SDS011;5814;41.936;25.556;2023-04-25T04:37:50;15.73;;;13.07;;
11514;SDS011;5814;41.936;25.556;2023-04-25T04:40:17;19.20;;;14.30;;
11514;SDS011;5814;41.936;25.556;2023-04-25T04:42:44;24.73;;;15.77;;
11514;SDS011;5814;41.936;25.556;2023-04-25T04:45:12;22.83;;;20.87;;
11514;SDS011;5814;41.936;25.556;2023-04-25T04:47:39;25.90;;;23.47;;
11514;SDS011;5814;41.936;25.556;2023-04-25T04:50:07;22.53;;;20.67;;
11514;SDS011;5814;41.936;25.556;2023-04-25T04:52:34;16.10;;;14.70;;
11514;SDS011;5814;41.936;25.556;2023-04-25T04:55:02;14.67;;;13.40;;
11514;SDS011;5814;41.936;25.556;2023-04-25T04:57:29;14.17;;;13.03;;
11514;SDS011;5814;41.936;25.556;2023-04-25T04:59:56;16.27;;;14.87;;
11514;SDS011;5814;41.936;25.556;2023-04-25T05:02:23;18.07;;;16.30;;
11514;SDS011;5814;41.936;25.556;2023-04-25T05:04:50;33.97;;;16.77;;
11514;SDS011;5814;41.936;25.556;2023-04-25T05:07:17;18.20;;;13.30;;
11514;SDS011;5814;41.936;25.556;2023-04-25T05:09:44;17.57;;;12.17;;
11514;SDS011;5814;41.936;25.556;2023-04-25T05:12:11;12.97;;;11.87;;
11514;SDS011;5814;41.936;25.556;2023-04-25T05:14:39;16.80;;;11.57;;
11514;SDS011;5814;41.936;25.556;2023-04-25T05:17:06;22.47;;;14.63;;
11514;SDS011;5814;41.936;25.556;2023-04-25T05:19:33;27.73;;;25.00;;
11514;SDS011;5814;41.936;25.556;2023-04-25T05:22:00;18.17;;;16.70;;
11514;SDS011;5814;41.936;25.556;2023-04-25T05:24:27;19.03;;;16.57;;
11514;SDS011;5814;41.936;25.556;2023-04-25T05:26:54;11.70;;;10.80;;
11514;SDS011;5814;41.936;25.556;2023-04-25T05:29:22;13.37;;;12.23;;
11514;SDS011;5814;41.936;25.556;2023-04-25T05:31:49;16.62;;;15.13;;
11514;SDS011;5814;41.936;25.556;2023-04-25T05:34:16;29.17;;;22.15;;
11514;SDS011;5814;41.936;25.556;2023-04-25T05:36:43;13.68;;;12.60;;
11514;SDS011;5814;41.936;25.556;2023-04-25T05:39:10;19.55;;;17.50;;
11514;SDS011;5814;41.936;25.556;2023-04-25T05:41:37;11.85;;;10.73;;
11514;SDS011;5814;41.936;25.556;2023-04-25T05:44:05;11.00;;;9.93;;
11514;SDS011;5814;41.936;25.556;2023-04-25T05:46:32;12.80;;;11.65;;
11514;SDS011;5814;41.936;25.556;2023-04-25T05:48:59;15.25;;;13.73;;
11514;SDS011;5814;41.936;25.556;2023-04-25T05:51:26;10.48;;;9.57;;
11514;SDS011;5814;41.936;25.556;2023-04-25T05:53:53;12.23;;;11.18;;
11514;SDS011;5814;41.936;25.556;2023-04-25T05:56:21;8.20;;;7.37;;
11514;SDS011;5814;41.936;25.556;2023-04-25T05:58:48;10.95;;;10.05;;
11514;SDS011;5814;41.936;25.556;2023-04-25T06:01:15;8.63;;;8.13;;
11514;SDS011;5814;41.936;25.556;2023-04-25T06:03:42;11.77;;;10.23;;
11514;SDS011;5814;41.936;25.556;2023-04-25T06:06:10;12.57;;;11.68;;
11514;SDS011;5814;41.936;25.556;2023-04-25T06:08:36;8.98;;;8.35;;
11514;SDS011;5814;41.936;25.556;2023-04-25T06:11:04;8.18;;;7.57;;
11514;SDS011;5814;41.936;25.556;2023-04-25T06:13:31;7.60;;;7.00;;
11514;SDS011;5814;41.936;25.556;2023-04-25T06:15:59;11.70;;;10.52;;
11514;SDS011;5814;41.936;25.556;2023-04-25T06:18:26;14.85;;;13.68;;
11514;SDS011;5814;41.936;25.556;2023-04-25T06:20:53;14.25;;;12.85;;
11514;SDS011;5814;41.936;25.556;2023-04-25T06:23:20;8.30;;;7.85;;
11514;SDS011;5814;41.936;25.556;2023-04-25T06:25:47;9.10;;;8.40;;
11514;SDS011;5814;41.936;25.556;2023-04-25T06:28:14;9.07;;;8.30;;
11514;SDS011;5814;41.936;25.556;2023-04-25T06:30:41;9.57;;;8.77;;
11514;SDS011;5814;41.936;25.556;2023-04-25T06:33:09;13.05;;;11.57;;
11514;SDS011;5814;41.936;25.556;2023-04-25T06:35:36;10.57;;;9.70;;
11514;SDS011;5814;41.936;25.556;2023-04-25T06:38:03;12.00;;;11.00;;
11514;SDS011;5814;41.936;25.556;2023-04-25T06:40:30;9.38;;;8.45;;
11514;SDS011;5814;41.936;25.556;2023-04-25T06:42:57;11.02;;;10.02;;
11514;SDS011;5814;41.936;25.556;2023-04-25T06:45:24;11.77;;;10.77;;
11514;SDS011;5814;41.936;25.556;2023-04-25T06:47:52;8.68;;;7.87;;
11514;SDS011;5814;41.936;25.556;2023-04-25T06:50:19;8.13;;;7.53;;
11514;SDS011;5814;41.936;25.556;2023-04-25T06:52:46;16.42;;;13.93;;
11514;SDS011;5814;41.936;25.556;2023-04-25T06:55:13;10.60;;;9.50;;
11514;SDS011;5814;41.936;25.556;2023-04-25T06:57:40;19.33;;;17.48;;
11514;SDS011;5814;41.936;25.556;2023-04-25T07:00:08;8.93;;;8.27;;
11514;SDS011;5814;41.936;25.556;2023-04-25T07:02:36;10.30;;;9.40;;
11514;SDS011;5814;41.936;25.556;2023-04-25T07:05:03;9.25;;;8.45;;
11514;SDS011;5814;41.936;25.556;2023-04-25T07:07:31;8.00;;;7.40;;
11514;SDS011;5814;41.936;25.556;2023-04-25T07:09:58;8.35;;;7.65;;
11514;SDS011;5814;41.936;25.556;2023-04-25T07:12:25;8.68;;;8.13;;
11514;SDS011;5814;41.936;25.556;2023-04-25T07:14:52;7.82;;;7.22;;
11514;SDS011;5814;41.936;25.556;2023-04-25T07:17:19;7.78;;;7.07;;
11514;SDS011;5814;41.936;25.556;2023-04-25T07:19:47;7.70;;;7.07;;
11514;SDS011;5814;41.936;25.556;2023-04-25T07:22:14;7.60;;;7.10;;
11514;SDS011;5814;41.936;25.556;2023-04-25T07:24:41;8.27;;;7.57;;
11514;SDS011;5814;41.936;25.556;2023-04-25T07:27:08;8.35;;;7.80;;
11514;SDS011;5814;41.936;25.556;2023-04-25T07:29:35;8.95;;;8.18;;
11514;SDS011;5814;41.936;25.556;2023-04-25T07:32:02;10.10;;;9.30;;
11514;SDS011;5814;41.936;25.556;2023-04-25T07:34:30;11.15;;;10.25;;
11514;SDS011;5814;41.936;25.556;2023-04-25T07:36:57;15.60;;;13.98;;
11514;SDS011;5814;41.936;25.556;2023-04-25T07:39:25;9.10;;;8.40;;
11514;SDS011;5814;41.936;25.556;2023-04-25T07:41:52;11.23;;;10.27;;
11514;SDS011;5814;41.936;25.556;2023-04-25T07:44:19;9.48;;;8.73;;
11514;SDS011;5814;41.936;25.556;2023-04-25T07:46:46;8.80;;;8.15;;
11514;SDS011;5814;41.936;25.556;2023-04-25T07:49:13;9.45;;;8.73;;
11514;SDS011;5814;41.936;25.556;2023-04-25T07:51:41;8.77;;;8.23;;
11514;SDS011;5814;41.936;25.556;2023-04-25T07:54:08;8.90;;;8.38;;
11514;SDS011;5814;41.936;25.556;2023-04-25T07:56:35;8.48;;;7.97;;
11514;SDS011;5814;41.936;25.556;2023-04-25T07:59:02;8.25;;;7.75;;
11514;SDS011;5814;41.936;25.556;2023-04-25T08:01:29;8.98;;;8.27;;
11514;SDS011;5814;41.936;25.556;2023-04-25T08:03:56;9.30;;;8.65;;
11514;SDS011;5814;41.936;25.556;2023-04-25T08:06:24;10.93;;;8.15;;
11514;SDS011;5814;41.936;25.556;2023-04-25T08:08:51;9.40;;;8.80;;
11514;SDS011;5814;41.936;25.556;2023-04-25T08:11:18;10.23;;;8.75;;
11514;SDS011;5814;41.936;25.556;2023-04-25T08:13:45;10.32;;;9.45;;
11514;SDS011;5814;41.936;25.556;2023-04-25T08:16:12;10.85;;;10.05;;
11514;SDS011;5814;41.936;25.556;2023-04-25T08:18:39;10.13;;;9.32;;
11514;SDS011;5814;41.936;25.556;2023-04-25T08:21:07;9.52;;;8.82;;
11514;SDS011;5814;41.936;25.556;2023-04-25T08:23:34;9.15;;;8.55;;
11514;SDS011;5814;41.936;25.556;2023-04-25T08:26:01;9.13;;;8.32;;
11514;SDS011;5814;41.936;25.556;2023-04-25T08:28:28;8.27;;;7.55;;
11514;SDS011;5814;41.936;25.556;2023-04-25T08:30:56;10.40;;;9.38;;
11514;SDS011;5814;41.936;25.556;2023-04-25T08:33:23;9.20;;;8.45;;
11514;SDS011;5814;41.936;25.556;2023-04-25T08:35:50;7.57;;;7.07;;
11514;SDS011;5814;41.936;25.556;2023-04-25T08:38:17;8.00;;;7.30;;
11514;SDS011;5814;41.936;25.556;2023-04-25T08:40:45;7.70;;;7.12;;
11514;SDS011;5814;41.936;25.556;2023-04-25T08:43:13;6.90;;;6.40;;
11514;SDS011;5814;41.936;25.556;2023-04-25T08:45:40;7.45;;;6.75;;
11514;SDS011;5814;41.936;25.556;2023-04-25T08:48:07;6.53;;;6.00;;
11514;SDS011;5814;41.936;25.556;2023-04-25T08:50:35;6.60;;;6.18;;
11514;SDS011;5814;41.936;25.556;2023-04-25T08:53:03;6.68;;;6.10;;
11514;SDS011;5814;41.936;25.556;2023-04-25T08:55:29;6.30;;;5.78;;
11514;SDS011;5814;41.936;25.556;2023-04-25T08:57:57;7.35;;;6.85;;
11514;SDS011;5814;41.936;25.556;2023-04-25T09:00:24;8.63;;;8.07;;
11514;SDS011;5814;41.936;25.556;2023-04-25T09:02:51;9.05;;;8.02;;
11514;SDS011;5814;41.936;25.556;2023-04-25T09:05:18;6.80;;;6.40;;
11514;SDS011;5814;41.936;25.556;2023-04-25T09:07:45;7.45;;;6.95;;
11514;SDS011;5814;41.936;25.556;2023-04-25T09:10:12;6.68;;;6.05;;
11514;SDS011;5814;41.936;25.556;2023-04-25T09:12:40;6.68;;;6.20;;
11514;SDS011;5814;41.936;25.556;2023-04-25T09:15:08;8.00;;;7.30;;
11514;SDS011;5814;41.936;25.556;2023-04-25T09:17:35;7.32;;;6.72;;
11514;SDS011;5814;41.936;25.556;2023-04-25T09:20:06;7.37;;;6.80;;
11514;SDS011;5814;41.936;25.556;2023-04-25T09:22:35;6.93;;;6.53;;
11514;SDS011;5814;41.936;25.556;2023-04-25T09:25:03;11.75;;;10.27;;
11514;SDS011;5814;41.936;25.556;2023-04-25T09:27:29;7.43;;;6.70;;
11514;SDS011;5814;41.936;25.556;2023-04-25T09:29:57;9.20;;;8.38;;
11514;SDS011;5814;41.936;25.556;2023-04-25T09:32:24;8.18;;;7.47;;
11514;SDS011;5814;41.936;25.556;2023-04-25T09:34:53;11.35;;;10.50;;
11514;SDS011;5814;41.936;25.556;2023-04-25T09:37:20;8.25;;;7.30;;
11514;SDS011;5814;41.936;25.556;2023-04-25T09:39:48;6.87;;;6.40;;
11514;SDS011;5814;41.936;25.556;2023-04-25T09:42:15;7.03;;;6.47;;
11514;SDS011;5814;41.936;25.556;2023-04-25T09:44:42;7.20;;;6.75;;
11514;SDS011;5814;41.936;25.556;2023-04-25T09:47:09;6.18;;;5.72;;
11514;SDS011;5814;41.936;25.556;2023-04-25T09:49:38;5.30;;;5.00;;
11514;SDS011;5814;41.936;25.556;2023-04-25T09:52:03;12.07;;;10.85;;
11514;SDS011;5814;41.936;25.556;2023-04-25T09:54:30;5.30;;;5.00;;
11514;SDS011;5814;41.936;25.556;2023-04-25T09:56:58;6.45;;;5.97;;
11514;SDS011;5814;41.936;25.556;2023-04-25T09:59:25;5.07;;;4.78;;
11514;SDS011;5814;41.936;25.556;2023-04-25T10:01:52;5.80;;;5.37;;
11514;SDS011;5814;41.936;25.556;2023-04-25T10:04:20;7.18;;;6.57;;
11514;SDS011;5814;41.936;25.556;2023-04-25T10:06:47;5.32;;;4.90;;
11514;SDS011;5814;41.936;25.556;2023-04-25T10:09:14;5.43;;;4.93;;
11514;SDS011;5814;41.936;25.556;2023-04-25T10:11:41;4.95;;;4.55;;
11514;SDS011;5814;41.936;25.556;2023-04-25T10:14:08;6.10;;;5.57;;
11514;SDS011;5814;41.936;25.556;2023-04-25T10:16:35;9.63;;;7.45;;
11514;SDS011;5814;41.936;25.556;2023-04-25T10:19:03;9.02;;;8.20;;
11514;SDS011;5814;41.936;25.556;2023-04-25T10:21:30;11.63;;;10.77;;
11514;SDS011;5814;41.936;25.556;2023-04-25T10:23:57;10.07;;;9.32;;
11514;SDS011;5814;41.936;25.556;2023-04-25T10:26:25;7.68;;;7.07;;
11514;SDS011;5814;41.936;25.556;2023-04-25T10:28:58;8.80;;;8.10;;
11514;SDS011;5814;41.936;25.556;2023-04-25T10:31:25;8.07;;;6.50;;
11514;SDS011;5814;41.936;25.556;2023-04-25T10:33:52;8.73;;;7.80;;
11514;SDS011;5814;41.936;25.556;2023-04-25T10:36:20;9.57;;;7.30;;
11514;SDS011;5814;41.936;25.556;2023-04-25T10:38:47;8.13;;;7.37;;
11514;SDS011;5814;41.936;25.556;2023-04-25T10:41:14;8.40;;;7.70;;
11514;SDS011;5814;41.936;25.556;2023-04-25T10:43:42;9.95;;;9.05;;
11514;SDS011;5814;41.936;25.556;2023-04-25T10:48:49;8.25;;;7.62;;
11514;SDS011;5814;41.936;25.556;2023-04-25T10:51:18;8.70;;;8.20;;
11514;SDS011;5814;41.936;25.556;2023-04-25T10:53:45;8.45;;;7.70;;
11514;SDS011;5814;41.936;25.556;2023-04-25T10:56:16;7.45;;;6.93;;
11514;SDS011;5814;41.936;25.556;2023-04-25T10:58:46;7.87;;;6.70;;
11514;SDS011;5814;41.936;25.556;2023-04-25T11:01:13;7.45;;;6.75;;
11514;SDS011;5814;41.936;25.556;2023-04-25T11:03:41;7.15;;;6.57;;
11514;SDS011;5814;41.936;25.556;2023-04-25T11:06:10;8.23;;;7.53;;
11514;SDS011;5814;41.936;25.556;2023-04-25T11:08:40;9.93;;;9.20;;
11514;SDS011;5814;41.936;25.556;2023-04-25T11:11:04;12.02;;;9.95;;
11514;SDS011;5814;41.936;25.556;2023-04-25T11:13:31;10.77;;;9.13;;
11514;SDS011;5814;41.936;25.556;2023-04-25T11:15:58;7.55;;;6.90;;
11514;SDS011;5814;41.936;25.556;2023-04-25T11:18:26;7.00;;;6.60;;
11514;SDS011;5814;41.936;25.556;2023-04-25T11:20:53;8.18;;;7.60;;
11514;SDS011;5814;41.936;25.556;2023-04-25T11:23:20;8.48;;;6.00;;
11514;SDS011;5814;41.936;25.556;2023-04-25T11:25:47;5.60;;;5.22;;
11514;SDS011;5814;41.936;25.556;2023-04-25T11:28:20;5.82;;;5.47;;
11514;SDS011;5814;41.936;25.556;2023-04-25T11:30:47;8.10;;;7.40;;
11514;SDS011;5814;41.936;25.556;2023-04-25T11:33:09;7.60;;;7.10;;
11514;SDS011;5814;41.936;25.556;2023-04-25T11:35:36;6.30;;;5.90;;
11514;SDS011;5814;41.936;25.556;2023-04-25T11:38:03;6.50;;;6.00;;
11514;SDS011;5814;41.936;25.556;2023-04-25T11:40:30;9.35;;;8.45;;
11514;SDS011;5814;41.936;25.556;2023-04-25T11:42:59;7.90;;;7.30;;
11514;SDS011;5814;41.936;25.556;2023-04-25T11:45:25;11.82;;;10.73;;
11514;SDS011;5814;41.936;25.556;2023-04-25T11:47:52;5.05;;;4.75;;
11514;SDS011;5814;41.936;25.556;2023-04-25T11:50:19;5.93;;;5.47;;
11514;SDS011;5814;41.936;25.556;2023-04-25T11:52:47;5.72;;;5.43;;
11514;SDS011;5814;41.936;25.556;2023-04-25T11:55:14;8.10;;;7.70;;
11514;SDS011;5814;41.936;25.556;2023-04-25T11:57:42;4.78;;;4.57;;
11514;SDS011;5814;41.936;25.556;2023-04-25T12:00:13;4.53;;;4.32;;
11514;SDS011;5814;41.936;25.556;2023-04-25T12:02:43;3.80;;;3.70;;
11514;SDS011;5814;41.936;25.556;2023-04-25T12:05:10;3.65;;;3.55;;
11514;SDS011;5814;41.936;25.556;2023-04-25T12:07:37;5.50;;;5.05;;
11514;SDS011;5814;41.936;25.556;2023-04-25T12:10:05;4.20;;;4.00;;
11514;SDS011;5814;41.936;25.556;2023-04-25T12:12:32;4.40;;;4.20;;
11514;SDS011;5814;41.936;25.556;2023-04-25T12:17:36;4.00;;;3.80;;
11514;SDS011;5814;41.936;25.556;2023-04-25T12:20:09;5.00;;;4.70;;
11514;SDS011;5814;41.936;25.556;2023-04-25T12:22:37;4.00;;;3.80;;
11514;SDS011;5814;41.936;25.556;2023-04-25T12:25:04;4.47;;;4.28;;
11514;SDS011;5814;41.936;25.556;2023-04-25T12:27:32;4.15;;;3.95;;
11514;SDS011;5814;41.936;25.556;2023-04-25T12:29:59;4.05;;;3.85;;
11514;SDS011;5814;41.936;25.556;2023-04-25T12:32:26;4.87;;;4.50;;
11514;SDS011;5814;41.936;25.556;2023-04-25T12:34:54;4.07;;;3.85;;
11514;SDS011;5814;41.936;25.556;2023-04-25T12:37:21;5.00;;;4.70;;
11514;SDS011;5814;41.936;25.556;2023-04-25T12:39:48;4.43;;;4.00;;
11514;SDS011;5814;41.936;25.556;2023-04-25T12:42:15;5.12;;;4.28;;
11514;SDS011;5814;41.936;25.556;2023-04-25T12:44:42;4.03;;;3.87;;
11514;SDS011;5814;41.936;25.556;2023-04-25T12:47:09;4.15;;;3.95;;
11514;SDS011;5814;41.936;25.556;2023-04-25T12:49:36;4.07;;;3.87;;
11514;SDS011;5814;41.936;25.556;2023-04-25T12:52:04;4.10;;;3.90;;
11514;SDS011;5814;41.936;25.556;2023-04-25T12:54:31;5.12;;;4.90;;
11514;SDS011;5814;41.936;25.556;2023-04-25T12:56:58;4.10;;;3.90;;
11514;SDS011;5814;41.936;25.556;2023-04-25T12:59:25;5.18;;;4.87;;
11514;SDS011;5814;41.936;25.556;2023-04-25T13:01:52;4.05;;;3.83;;
11514;SDS011;5814;41.936;25.556;2023-04-25T13:04:19;4.28;;;4.07;;
11514;SDS011;5814;41.936;25.556;2023-04-25T13:06:47;4.25;;;4.05;;
11514;SDS011;5814;41.936;25.556;2023-04-25T13:09:14;5.50;;;4.55;;
11514;SDS011;5814;41.936;25.556;2023-04-25T13:11:41;7.45;;;4.28;;
11514;SDS011;5814;41.936;25.556;2023-04-25T13:14:08;4.35;;;4.05;;
11514;SDS011;5814;41.936;25.556;2023-04-25T13:16:35;4.80;;;4.35;;
11514;SDS011;5814;41.936;25.556;2023-04-25T13:19:02;4.30;;;4.10;;
11514;SDS011;5814;41.936;25.556;2023-04-25T13:21:30;4.68;;;4.18;;
11514;SDS011;5814;41.936;25.556;2023-04-25T13:23:57;3.97;;;3.80;;
11514;SDS011;5814;41.936;25.556;2023-04-25T13:26:24;6.35;;;5.90;;
11514;SDS011;5814;41.936;25.556;2023-04-25T13:28:51;4.20;;;4.00;;
11514;SDS011;5814;41.936;25.556;2023-04-25T13:31:19;10.43;;;9.57;;
11514;SDS011;5814;41.936;25.556;2023-04-25T13:33:46;5.18;;;4.78;;
11514;SDS011;5814;41.936;25.556;2023-04-25T13:36:13;5.15;;;4.30;;
11514;SDS011;5814;41.936;25.556;2023-04-25T13:38:40;4.62;;;4.32;;
11514;SDS011;5814;41.936;25.556;2023-04-25T13:41:07;4.70;;;4.40;;
11514;SDS011;5814;41.936;25.556;2023-04-25T13:43:34;4.55;;;4.32;;
11514;SDS011;5814;41.936;25.556;2023-04-25T13:46:02;3.65;;;3.55;;
11514;SDS011;5814;41.936;25.556;2023-04-25T13:48:29;4.37;;;4.12;;
11514;SDS011;5814;41.936;25.556;2023-04-25T13:50:56;6.15;;;4.90;;
11514;SDS011;5814;41.936;25.556;2023-04-25T13:53:23;4.40;;;4.20;;
11514;SDS011;5814;41.936;25.556;2023-04-25T13:55:50;5.90;;;5.55;;
11514;SDS011;5814;41.936;25.556;2023-04-25T13:58:17;4.40;;;4.20;;
11514;SDS011;5814;41.936;25.556;2023-04-25T14:00:45;4.35;;;4.12;;
11514;SDS011;5814;41.936;25.556;2023-04-25T14:03:12;4.72;;;4.45;;
11514;SDS011;5814;41.936;25.556;2023-04-25T14:05:39;4.55;;;4.18;;
11514;SDS011;5814;41.936;25.556;2023-04-25T14:08:07;4.40;;;4.20;;
11514;SDS011;5814;41.936;25.556;2023-04-25T14:10:33;4.78;;;4.47;;
11514;SDS011;5814;41.936;25.556;2023-04-25T14:13:01;5.30;;;4.90;;
11514;SDS011;5814;41.936;25.556;2023-04-25T14:15:28;5.50;;;5.20;;
11514;SDS011;5814;41.936;25.556;2023-04-25T14:17:55;5.12;;;4.93;;
11514;SDS011;5814;41.936;25.556;2023-04-25T14:20:22;5.30;;;4.90;;
11514;SDS011;5814;41.936;25.556;2023-04-25T14:22:49;4.78;;;4.57;;
11514;SDS011;5814;41.936;25.556;2023-04-25T14:25:16;6.32;;;4.93;;
11514;SDS011;5814;41.936;25.556;2023-04-25T14:27:44;5.80;;;5.50;;
11514;SDS011;5814;41.936;25.556;2023-04-25T14:30:11;6.55;;;6.25;;
11514;SDS011;5814;41.936;25.556;2023-04-25T14:32:38;6.53;;;6.22;;
11514;SDS011;5814;41.936;25.556;2023-04-25T14:35:05;6.72;;;6.20;;
11514;SDS011;5814;41.936;25.556;2023-04-25T14:37:33;6.05;;;5.72;;
11514;SDS011;5814;41.936;25.556;2023-04-25T14:40:00;6.00;;;5.70;;
11514;SDS011;5814;41.936;25.556;2023-04-25T14:42:27;6.10;;;5.57;;